sensor_id;sensor_type;location;lat;lon;timestamp;pressure;altitude;pressure_sealevel;temperature;humidity
72157;BME280;60035;52.122;5.406;2024-01-07T00:02:09;102015.53;;;1.13;100.00
72157;BME280;60035;52.122;5.406;2024-01-07T00:04:36;102020.56;;;1.12;100.00
72157;BME280;60035;52.122;5.406;2024-01-07T00:07:04;102022.31;;;1.14;100.00
72157;BME280;60035;52.122;5.406;2024-01-07T00:09:31;102023.06;;;1.12;100.00
72157;BME280;60035;52.122;5.406;2024-01-07T00:11:57;102028.19;;;1.15;100.00
72157;BME280;60035;52.122;5.406;2024-01-07T00:14:24;102025.66;;;1.15;100.00
72157;BME280;60035;52.122;5.406;2024-01-07T00:16:51;102027.31;;;1.13;100.00
72157;BME280;60035;52.122;5.406;2024-01-07T00:19:17;102035.75;;;1.15;100.00
72157;BME280;60035;52.122;5.406;2024-01-07T00:21:44;102039.19;;;1.17;100.00
72157;BME280;60035;52.122;5.406;2024-01-07T00:24:11;102044.22;;;1.15;100.00
72157;BME280;60035;52.122;5.406;2024-01-07T00:26:37;102042.34;;;1.10;100.00
72157;BME280;60035;52.122;5.406;2024-01-07T00:29:04;102044.97;;;1.13;100.00
72157;BME280;60035;52.122;5.406;2024-01-07T00:31:30;102047.50;;;1.13;100.00
72157;BME280;60035;52.122;5.406;2024-01-07T00:33:57;102037.25;;;1.08;100.00
72157;BME280;60035;52.122;5.406;2024-01-07T00:36:24;102046.53;;;1.09;100.00
72157;BME280;60035;52.122;5.406;2024-01-07T00:38:51;102052.38;;;1.08;100.00
72157;BME280;60035;52.122;5.406;2024-01-07T00:41:17;102053.31;;;1.10;100.00
72157;BME280;60035;52.122;5.406;2024-01-07T00:43:43;102055.81;;;1.10;100.00
72157;BME280;60035;52.122;5.406;2024-01-07T00:46:10;102063.41;;;1.10;100.00
72157;BME280;60035;52.122;5.406;2024-01-07T00:48:36;102061.72;;;1.11;100.00
72157;BME280;60035;52.122;5.406;2024-01-07T00:51:03;102058.34;;;1.10;100.00
72157;BME280;60035;52.122;5.406;2024-01-07T00:53:30;102050.81;;;1.12;100.00
72157;BME280;60035;52.122;5.406;2024-01-07T00:55:56;102059.19;;;1.11;100.00
72157;BME280;60035;52.122;5.406;2024-01-07T00:58:23;102065.13;;;1.11;100.00
72157;BME280;60035;52.122;5.406;2024-01-07T01:00:50;102064.09;;;1.05;100.00
72157;BME280;60035;52.122;5.406;2024-01-07T01:03:20;102077.44;;;1.02;100.00
72157;BME280;60035;52.122;5.406;2024-01-07T01:05:46;102077.53;;;1.05;100.00
72157;BME280;60035;52.122;5.406;2024-01-07T01:08:13;102067.41;;;1.04;100.00
72157;BME280;60035;52.122;5.406;2024-01-07T01:10:40;102077.38;;;1.00;100.00
72157;BME280;60035;52.122;5.406;2024-01-07T01:13:06;102076.47;;;0.97;100.00
72157;BME280;60035;52.122;5.406;2024-01-07T01:15:33;102072.22;;;0.96;100.00
72157;BME280;60035;52.122;5.406;2024-01-07T01:17:59;102081.59;;;1.00;100.00
72157;BME280;60035;52.122;5.406;2024-01-07T01:20:26;102078.28;;;1.03;100.00
72157;BME280;60035;52.122;5.406;2024-01-07T01:22:53;102084.94;;;1.00;100.00
72157;BME280;60035;52.122;5.406;2024-01-07T01:25:19;102093.38;;;1.01;100.00
72157;BME280;60035;52.122;5.406;2024-01-07T01:27:46;102090.09;;;1.04;100.00
72157;BME280;60035;52.122;5.406;2024-01-07T01:30:13;102088.53;;;1.07;100.00
72157;BME280;60035;52.122;5.406;2024-01-07T01:32:41;102090.94;;;1.04;100.00
72157;BME280;60035;52.122;5.406;2024-01-07T01:35:08;102096.00;;;1.04;100.00
72157;BME280;60035;52.122;5.406;2024-01-07T01:37:35;102092.66;;;1.05;100.00
72157;BME280;60035;52.122;5.406;2024-01-07T01:40:03;102097.75;;;1.07;100.00
72157;BME280;60035;52.122;5.406;2024-01-07T01:42:30;102096.91;;;1.06;100.00
72157;BME280;60035;52.122;5.406;2024-01-07T01:44:57;102104.44;;;1.05;100.00
72157;BME280;60035;52.122;5.406;2024-01-07T01:47:29;102114.41;;;1.02;100.00
72157;BME280;60035;52.122;5.406;2024-01-07T01:49:56;102118.53;;;0.98;100.00
72157;BME280;60035;52.122;5.406;2024-01-07T01:52:23;102119.41;;;1.00;100.00
72157;BME280;60035;52.122;5.406;2024-01-07T01:54:51;102123.56;;;0.98;100.00
72157;BME280;60035;52.122;5.406;2024-01-07T01:57:20;102119.31;;;0.97;100.00
72157;BME280;60035;52.122;5.406;2024-01-07T01:59:49;102124.41;;;0.98;100.00
72157;BME280;60035;52.122;5.406;2024-01-07T02:02:15;102135.34;;;0.99;100.00
72157;BME280;60035;52.122;5.406;2024-01-07T02:04:42;102136.25;;;1.01;100.00
72157;BME280;60035;52.122;5.406;2024-01-07T02:07:09;102132.94;;;1.02;100.00
72157;BME280;60035;52.122;5.406;2024-01-07T02:09:36;102133.75;;;1.01;100.00
72157;BME280;60035;52.122;5.406;2024-01-07T02:12:06;102139.50;;;0.97;100.00
72157;BME280;60035;52.122;5.406;2024-01-07T02:14:38;102141.16;;;0.96;100.00
72157;BME280;60035;52.122;5.406;2024-01-07T02:17:05;102147.16;;;1.00;100.00
72157;BME280;60035;52.122;5.406;2024-01-07T02:19:32;102138.88;;;1.04;100.00
72157;BME280;60035;52.122;5.406;2024-01-07T02:21:59;102142.19;;;1.03;100.00
72157;BME280;60035;52.122;5.406;2024-01-07T02:24:25;102149.63;;;0.98;100.00
72157;BME280;60035;52.122;5.406;2024-01-07T02:26:55;102153.84;;;0.98;100.00
72157;BME280;60035;52.122;5.406;2024-01-07T02:29:21;102145.25;;;0.93;100.00
72157;BME280;60035;52.122;5.406;2024-01-07T02:31:48;102153.63;;;0.92;100.00
72157;BME280;60035;52.122;5.406;2024-01-07T02:34:14;102154.47;;;0.92;100.00
72157;BME280;60035;52.122;5.406;2024-01-07T02:36:41;102152.00;;;0.94;100.00
72157;BME280;60035;52.122;5.406;2024-01-07T02:39:08;102158.66;;;0.92;100.00
72157;BME280;60035;52.122;5.406;2024-01-07T02:41:34;102159.53;;;0.92;100.00
72157;BME280;60035;52.122;5.406;2024-01-07T02:44:01;102160.44;;;0.94;100.00
72157;BME280;60035;52.122;5.406;2024-01-07T02:46:28;102155.47;;;0.97;100.00
72157;BME280;60035;52.122;5.406;2024-01-07T02:48:54;102153.84;;;0.98;100.00
72157;BME280;60035;52.122;5.406;2024-01-07T02:51:21;102158.09;;;1.00;100.00
72157;BME280;60035;52.122;5.406;2024-01-07T02:53:47;102161.44;;;0.99;100.00
72157;BME280;60035;52.122;5.406;2024-01-07T02:56:14;102165.59;;;0.99;100.00
72157;BME280;60035;52.122;5.406;2024-01-07T02:58:40;102169.81;;;0.98;100.00
72157;BME280;60035;52.122;5.406;2024-01-07T03:01:10;102173.19;;;0.99;100.00
72157;BME280;60035;52.122;5.406;2024-01-07T03:03:37;102166.44;;;0.98;100.00
72157;BME280;60035;52.122;5.406;2024-01-07T03:06:05;102165.59;;;0.99;100.00
72157;BME280;60035;52.122;5.406;2024-01-07T03:08:32;102169.75;;;0.97;100.00
72157;BME280;60035;52.122;5.406;2024-01-07T03:11:04;102176.38;;;0.93;100.00
72157;BME280;60035;52.122;5.406;2024-01-07T03:13:30;102177.22;;;0.94;100.00
72157;BME280;60035;52.122;5.406;2024-01-07T03:15:57;102182.25;;;0.94;100.00
72157;BME280;60035;52.122;5.406;2024-01-07T03:18:23;102181.31;;;0.90;100.00
72157;BME280;60035;52.122;5.406;2024-01-07T03:20:50;102182.88;;;0.87;100.00
72157;BME280;60035;52.122;5.406;2024-01-07T03:23:17;102190.44;;;0.87;100.00
72157;BME280;60035;52.122;5.406;2024-01-07T03:25:45;102190.50;;;0.88;100.00
72157;BME280;60035;52.122;5.406;2024-01-07T03:28:11;102192.16;;;0.88;100.00
72157;BME280;60035;52.122;5.406;2024-01-07T03:30:38;102191.38;;;0.89;100.00
72157;BME280;60035;52.122;5.406;2024-01-07T03:33:04;102189.66;;;0.88;100.00
72157;BME280;60035;52.122;5.406;2024-01-07T03:35:31;102198.06;;;0.88;100.00
72157;BME280;60035;52.122;5.406;2024-01-07T03:37:57;102202.31;;;0.89;100.00
72157;BME280;60035;52.122;5.406;2024-01-07T03:40:24;102197.16;;;0.86;100.00
72157;BME280;60035;52.122;5.406;2024-01-07T03:42:52;102200.50;;;0.85;100.00
72157;BME280;60035;52.122;5.406;2024-01-07T03:45:18;102203.09;;;0.88;100.00
72157;BME280;60035;52.122;5.406;2024-01-07T03:47:45;102203.16;;;0.90;100.00
72157;BME280;60035;52.122;5.406;2024-01-07T03:50:11;102214.06;;;0.89;100.00
72157;BME280;60035;52.122;5.406;2024-01-07T03:52:38;102213.94;;;0.86;100.00
72157;BME280;60035;52.122;5.406;2024-01-07T03:55:05;102210.53;;;0.83;100.00
72157;BME280;60035;52.122;5.406;2024-01-07T03:57:32;102215.56;;;0.83;100.00
72157;BME280;60035;52.122;5.406;2024-01-07T03:59:59;102222.25;;;0.83;100.00
72157;BME280;60035;52.122;5.406;2024-01-07T04:02:26;102218.09;;;0.83;100.00
72157;BME280;60035;52.122;5.406;2024-01-07T04:04:52;102230.69;;;0.83;100.00
72157;BME280;60035;52.122;5.406;2024-01-07T04:07:19;102227.31;;;0.83;100.00
72157;BME280;60035;52.122;5.406;2024-01-07T04:09:46;102234.78;;;0.80;100.00
72157;BME280;60035;52.122;5.406;2024-01-07T04:12:12;102231.34;;;0.78;100.00
72157;BME280;60035;52.122;5.406;2024-01-07T04:14:39;102228.88;;;0.79;100.00
72157;BME280;60035;52.122;5.406;2024-01-07T04:17:06;102237.34;;;0.81;100.00
72157;BME280;60035;52.122;5.406;2024-01-07T04:19:37;102236.53;;;0.82;100.00
72157;BME280;60035;52.122;5.406;2024-01-07T04:22:04;102238.19;;;0.82;100.00
72157;BME280;60035;52.122;5.406;2024-01-07T04:24:31;102243.19;;;0.80;100.00
72157;BME280;60035;52.122;5.406;2024-01-07T04:26:58;102244.84;;;0.80;100.00
72157;BME280;60035;52.122;5.406;2024-01-07T04:29:24;102254.09;;;0.79;100.00
72157;BME280;60035;52.122;5.406;2024-01-07T04:31:51;102254.16;;;0.81;100.00
72157;BME280;60035;52.122;5.406;2024-01-07T04:34:17;102252.56;;;0.85;100.00
72157;BME280;60035;52.122;5.406;2024-01-07T04:36:44;102261.16;;;0.90;100.00
72157;BME280;60035;52.122;5.406;2024-01-07T04:39:11;102261.09;;;0.88;100.00
72157;BME280;60035;52.122;5.406;2024-01-07T04:41:37;102265.34;;;0.89;100.00
72157;BME280;60035;52.122;5.406;2024-01-07T04:44:04;102275.47;;;0.91;100.00
72157;BME280;60035;52.122;5.406;2024-01-07T04:46:34;102272.06;;;0.89;100.00
72157;BME280;60035;52.122;5.406;2024-01-07T04:49:01;102272.84;;;0.88;100.00
72157;BME280;60035;52.122;5.406;2024-01-07T04:51:28;102277.84;;;0.86;100.00
72157;BME280;60035;52.122;5.406;2024-01-07T04:53:54;102282.72;;;0.81;100.00
72157;BME280;60035;52.122;5.406;2024-01-07T04:56:21;102282.72;;;0.81;100.00
72157;BME280;60035;52.122;5.406;2024-01-07T04:58:47;102286.88;;;0.79;100.00
72157;BME280;60035;52.122;5.406;2024-01-07T05:01:14;102291.00;;;0.77;100.00
72157;BME280;60035;52.122;5.406;2024-01-07T05:03:41;102296.88;;;0.78;100.00
72157;BME280;60035;52.122;5.406;2024-01-07T05:06:10;102297.75;;;0.78;100.00
72157;BME280;60035;52.122;5.406;2024-01-07T05:08:37;102300.38;;;0.81;100.00
72157;BME280;60035;52.122;5.406;2024-01-07T05:11:04;102310.47;;;0.81;100.00
72157;BME280;60035;52.122;5.406;2024-01-07T05:13:30;102308.13;;;0.86;100.00
72157;BME280;60035;52.122;5.406;2024-01-07T05:15:57;102312.41;;;0.89;100.00
72157;BME280;60035;52.122;5.406;2024-01-07T05:18:24;102313.22;;;0.88;100.00
72157;BME280;60035;52.122;5.406;2024-01-07T05:20:51;102320.03;;;0.90;100.00
72157;BME280;60035;52.122;5.406;2024-01-07T05:23:18;102314.22;;;0.93;100.00
72157;BME280;60035;52.122;5.406;2024-01-07T05:25:45;102315.91;;;0.94;100.00
72157;BME280;60035;52.122;5.406;2024-01-07T05:28:12;102316.63;;;0.90;100.00
72157;BME280;60035;52.122;5.406;2024-01-07T05:30:41;102331.66;;;0.87;100.00
72157;BME280;60035;52.122;5.406;2024-01-07T05:33:07;102334.97;;;0.86;100.00
72157;BME280;60035;52.122;5.406;2024-01-07T05:35:37;102335.84;;;0.86;100.00
72157;BME280;60035;52.122;5.406;2024-01-07T05:38:03;102328.28;;;0.86;100.00
72157;BME280;60035;52.122;5.406;2024-01-07T05:40:30;102335.03;;;0.87;100.00
72157;BME280;60035;52.122;5.406;2024-01-07T05:42:57;102334.22;;;0.88;100.00
72157;BME280;60035;52.122;5.406;2024-01-07T05:45:23;102335.09;;;0.89;100.00
72157;BME280;60035;52.122;5.406;2024-01-07T05:47:50;102339.38;;;0.91;100.00
72157;BME280;60035;52.122;5.406;2024-01-07T05:50:17;102350.31;;;0.92;100.00
72157;BME280;60035;52.122;5.406;2024-01-07T05:52:45;102351.06;;;0.89;100.00
72157;BME280;60035;52.122;5.406;2024-01-07T05:55:11;102358.47;;;0.85;100.00
72157;BME280;60035;52.122;5.406;2024-01-07T05:57:38;102362.66;;;0.84;100.00
72157;BME280;60035;52.122;5.406;2024-01-07T06:00:05;102357.53;;;0.81;100.00
72157;BME280;60035;52.122;5.406;2024-01-07T06:02:34;102361.69;;;0.80;100.00
72157;BME280;60035;52.122;5.406;2024-01-07T06:05:02;102367.63;;;0.81;100.00
72157;BME280;60035;52.122;5.406;2024-01-07T06:07:29;102372.66;;;0.81;100.00
72157;BME280;60035;52.122;5.406;2024-01-07T06:09:56;102368.47;;;0.81;100.00
72157;BME280;60035;52.122;5.406;2024-01-07T06:12:23;102375.97;;;0.80;100.00
72157;BME280;60035;52.122;5.406;2024-01-07T06:14:49;102376.75;;;0.79;100.00
72157;BME280;60035;52.122;5.406;2024-01-07T06:17:15;102381.84;;;0.80;100.00
72157;BME280;60035;52.122;5.406;2024-01-07T06:19:42;102384.38;;;0.80;100.00
72157;BME280;60035;52.122;5.406;2024-01-07T06:22:09;102394.38;;;0.77;100.00
72157;BME280;60035;52.122;5.406;2024-01-07T06:24:36;102401.13;;;0.78;100.00
72157;BME280;60035;52.122;5.406;2024-01-07T06:27:02;102385.97;;;0.77;100.00
72157;BME280;60035;52.122;5.406;2024-01-07T06:29:30;102400.16;;;0.75;100.00
72157;BME280;60035;52.122;5.406;2024-01-07T06:31:57;102413.56;;;0.74;100.00
72157;BME280;60035;52.122;5.406;2024-01-07T06:34:23;102411.84;;;0.73;100.00
72157;BME280;60035;52.122;5.406;2024-01-07T06:36:50;102413.56;;;0.74;100.00
72157;BME280;60035;52.122;5.406;2024-01-07T06:39:17;102416.97;;;0.74;100.00
72157;BME280;60035;52.122;5.406;2024-01-07T06:41:44;102425.41;;;0.76;100.00
72157;BME280;60035;52.122;5.406;2024-01-07T06:44:10;102421.91;;;0.73;100.00
72157;BME280;60035;52.122;5.406;2024-01-07T06:46:37;102422.66;;;0.70;100.00
72157;BME280;60035;52.122;5.406;2024-01-07T06:49:03;102430.13;;;0.67;100.00
72157;BME280;60035;52.122;5.406;2024-01-07T06:51:30;102436.84;;;0.66;100.00
72157;BME280;60035;52.122;5.406;2024-01-07T06:53:56;102430.81;;;0.63;100.00
72157;BME280;60035;52.122;5.406;2024-01-07T06:56:23;102436.69;;;0.63;100.00
72157;BME280;60035;52.122;5.406;2024-01-07T06:58:50;102441.75;;;0.63;100.00
72157;BME280;60035;52.122;5.406;2024-01-07T07:01:21;102443.41;;;0.63;100.00
72157;BME280;60035;52.122;5.406;2024-01-07T07:03:49;102450.97;;;0.63;100.00
72157;BME280;60035;52.122;5.406;2024-01-07T07:06:16;102460.13;;;0.61;100.00
72157;BME280;60035;52.122;5.406;2024-01-07T07:08:43;102461.13;;;0.64;100.00
72157;BME280;60035;52.122;5.406;2024-01-07T07:11:09;102464.50;;;0.65;100.00
72157;BME280;60035;52.122;5.406;2024-01-07T07:13:36;102465.41;;;0.67;100.00
72157;BME280;60035;52.122;5.406;2024-01-07T07:16:05;102468.72;;;0.66;100.00
72157;BME280;60035;52.122;5.406;2024-01-07T07:18:31;102465.38;;;0.65;100.00
72157;BME280;60035;52.122;5.406;2024-01-07T07:20:58;102467.84;;;0.64;100.00
72157;BME280;60035;52.122;5.406;2024-01-07T07:23:25;102485.47;;;0.64;100.00
72157;BME280;60035;52.122;5.406;2024-01-07T07:25:51;102487.13;;;0.63;100.00
72157;BME280;60035;52.122;5.406;2024-01-07T07:28:18;102490.38;;;0.61;100.00
72157;BME280;60035;52.122;5.406;2024-01-07T07:30:45;102482.03;;;0.62;100.00
72157;BME280;60035;52.122;5.406;2024-01-07T07:33:17;102494.63;;;0.62;100.00
72157;BME280;60035;52.122;5.406;2024-01-07T07:35:43;102491.31;;;0.63;100.00
72157;BME280;60035;52.122;5.406;2024-01-07T07:38:10;102498.03;;;0.62;100.00
72157;BME280;60035;52.122;5.406;2024-01-07T07:40:36;102502.19;;;0.62;100.00
72157;BME280;60035;52.122;5.406;2024-01-07T07:43:03;102504.66;;;0.60;100.00
72157;BME280;60035;52.122;5.406;2024-01-07T07:45:30;102510.31;;;0.55;100.00
72157;BME280;60035;52.122;5.406;2024-01-07T07:47:56;102512.06;;;0.56;100.00
72157;BME280;60035;52.122;5.406;2024-01-07T07:50:23;102519.72;;;0.59;100.00
72157;BME280;60035;52.122;5.406;2024-01-07T07:52:50;102529.81;;;0.59;100.00
72157;BME280;60035;52.122;5.406;2024-01-07T07:55:16;102525.56;;;0.58;100.00
72157;BME280;60035;52.122;5.406;2024-01-07T07:57:43;102536.44;;;0.57;100.00
72157;BME280;60035;52.122;5.406;2024-01-07T08:00:11;102539.78;;;0.56;100.00
72157;BME280;60035;52.122;5.406;2024-01-07T08:02:39;102543.16;;;0.56;100.00
72157;BME280;60035;52.122;5.406;2024-01-07T08:05:09;102548.94;;;0.54;100.00
72157;BME280;60035;52.122;5.406;2024-01-07T08:07:35;102550.66;;;0.55;100.00
72157;BME280;60035;52.122;5.406;2024-01-07T08:10:03;102559.22;;;0.58;100.00
72157;BME280;60035;52.122;5.406;2024-01-07T08:12:29;102564.09;;;0.55;100.00
72157;BME280;60035;52.122;5.406;2024-01-07T08:14:56;102568.28;;;0.55;100.00
72157;BME280;60035;52.122;5.406;2024-01-07T08:17:22;102567.41;;;0.54;100.00
72157;BME280;60035;52.122;5.406;2024-01-07T08:19:50;102570.03;;;0.56;100.00
72157;BME280;60035;52.122;5.406;2024-01-07T08:22:17;102571.63;;;0.54;100.00
72157;BME280;60035;52.122;5.406;2024-01-07T08:24:43;102574.91;;;0.53;100.00
72157;BME280;60035;52.122;5.406;2024-01-07T08:27:10;102580.91;;;0.55;100.00
72157;BME280;60035;52.122;5.406;2024-01-07T08:29:37;102577.59;;;0.56;100.00
72157;BME280;60035;52.122;5.406;2024-01-07T08:32:04;102577.44;;;0.53;100.00
72157;BME280;60035;52.122;5.406;2024-01-07T08:34:30;102581.53;;;0.49;100.00
72157;BME280;60035;52.122;5.406;2024-01-07T08:36:57;102584.88;;;0.49;100.00
72157;BME280;60035;52.122;5.406;2024-01-07T08:39:24;102593.19;;;0.47;100.00
72157;BME280;60035;52.122;5.406;2024-01-07T08:41:52;102599.06;;;0.47;100.00
72157;BME280;60035;52.122;5.406;2024-01-07T08:44:20;102600.00;;;0.49;100.00
72157;BME280;60035;52.122;5.406;2024-01-07T08:46:47;102607.56;;;0.49;100.00
72157;BME280;60035;52.122;5.406;2024-01-07T08:49:13;102607.50;;;0.48;100.00
72157;BME280;60035;52.122;5.406;2024-01-07T08:51:40;102615.06;;;0.48;100.00
72157;BME280;60035;52.122;5.406;2024-01-07T08:54:07;102623.44;;;0.47;100.00
72157;BME280;60035;52.122;5.406;2024-01-07T08:56:33;102620.84;;;0.45;100.00
72157;BME280;60035;52.122;5.406;2024-01-07T08:59:00;102624.28;;;0.47;100.00
72157;BME280;60035;52.122;5.406;2024-01-07T09:01:27;102629.31;;;0.47;100.00
72157;BME280;60035;52.122;5.406;2024-01-07T09:03:53;102629.31;;;0.47;100.00
72157;BME280;60035;52.122;5.406;2024-01-07T09:06:20;102632.84;;;0.51;100.00
72157;BME280;60035;52.122;5.406;2024-01-07T09:08:47;102640.59;;;0.56;100.00
72157;BME280;60035;52.122;5.406;2024-01-07T09:11:13;102644.03;;;0.58;100.00
72157;BME280;60035;52.122;5.406;2024-01-07T09:13:40;102650.59;;;0.54;100.00
72157;BME280;60035;52.122;5.406;2024-01-07T09:16:09;102650.53;;;0.53;100.00
72157;BME280;60035;52.122;5.406;2024-01-07T09:18:38;102650.59;;;0.54;100.00
72157;BME280;60035;52.122;5.406;2024-01-07T09:21:04;102642.31;;;0.57;100.00
72157;BME280;60035;52.122;5.406;2024-01-07T09:23:32;102663.13;;;0.53;100.00
72157;BME280;60035;52.122;5.406;2024-01-07T09:26:01;102665.53;;;0.49;100.00
72157;BME280;60035;52.122;5.406;2024-01-07T09:28:28;102675.69;;;0.51;100.00
72157;BME280;60035;52.122;5.406;2024-01-07T09:30:54;102676.53;;;0.52;100.00
72157;BME280;60035;52.122;5.406;2024-01-07T09:33:21;102687.59;;;0.55;100.00
72157;BME280;60035;52.122;5.406;2024-01-07T09:35:50;102684.31;;;0.56;100.00
72157;BME280;60035;52.122;5.406;2024-01-07T09:38:17;102689.47;;;0.59;100.00
72157;BME280;60035;52.122;5.406;2024-01-07T09:40:44;102692.91;;;0.61;100.00
72157;BME280;60035;52.122;5.406;2024-01-07T09:43:11;102697.03;;;0.59;100.00
72157;BME280;60035;52.122;5.406;2024-01-07T09:45:39;102694.44;;;0.58;100.00
72157;BME280;60035;52.122;5.406;2024-01-07T09:48:07;102710.44;;;0.58;100.00
72157;BME280;60035;52.122;5.406;2024-01-07T09:50:34;102708.78;;;0.59;100.00
72157;BME280;60035;52.122;5.406;2024-01-07T09:53:01;102707.03;;;0.58;100.00
72157;BME280;60035;52.122;5.406;2024-01-07T09:55:33;102712.88;;;0.57;100.00
72157;BME280;60035;52.122;5.406;2024-01-07T09:58:03;102719.47;;;0.53;100.00
72157;BME280;60035;52.122;5.406;2024-01-07T10:00:31;102723.63;;;0.53;100.00
72157;BME280;60035;52.122;5.406;2024-01-07T10:02:58;102712.22;;;0.61;100.00
72157;BME280;60035;52.122;5.406;2024-01-07T10:05:25;102722.50;;;0.65;100.00
72157;BME280;60035;52.122;5.406;2024-01-07T10:07:51;102730.00;;;0.64;100.00
72157;BME280;60035;52.122;5.406;2024-01-07T10:10:22;102722.28;;;0.61;100.00
72157;BME280;60035;52.122;5.406;2024-01-07T10:12:48;102732.38;;;0.61;100.00
72157;BME280;60035;52.122;5.406;2024-01-07T10:15:15;102723.06;;;0.58;100.00
72157;BME280;60035;52.122;5.406;2024-01-07T10:17:42;102730.84;;;0.64;100.00
72157;BME280;60035;52.122;5.406;2024-01-07T10:20:10;102726.69;;;0.65;100.00
72157;BME280;60035;52.122;5.406;2024-01-07T10:22:37;102732.84;;;0.72;100.00
72157;BME280;60035;52.122;5.406;2024-01-07T10:25:05;102736.88;;;0.68;100.00
72157;BME280;60035;52.122;5.406;2024-01-07T10:27:36;102742.94;;;0.72;100.00
72157;BME280;60035;52.122;5.406;2024-01-07T10:30:04;102748.03;;;0.73;100.00
72157;BME280;60035;52.122;5.406;2024-01-07T10:32:30;102752.34;;;0.76;100.00
72157;BME280;60035;52.122;5.406;2024-01-07T10:35:04;102760.09;;;0.80;100.00
72157;BME280;60035;52.122;5.406;2024-01-07T10:37:31;102761.28;;;0.89;100.00
72157;BME280;60035;52.122;5.406;2024-01-07T10:39:59;102767.47;;;0.95;100.00
72157;BME280;60035;52.122;5.406;2024-01-07T10:42:33;102766.78;;;0.99;100.00
72157;BME280;60035;52.122;5.406;2024-01-07T10:45:00;102766.84;;;1.01;100.00
72157;BME280;60035;52.122;5.406;2024-01-07T10:47:31;102772.94;;;1.06;100.00
72157;BME280;60035;52.122;5.406;2024-01-07T10:50:02;102762.97;;;1.09;100.00
72157;BME280;60035;52.122;5.406;2024-01-07T10:52:31;102775.63;;;1.11;100.00
72157;BME280;60035;52.122;5.406;2024-01-07T10:55:06;102776.97;;;1.03;100.00
72157;BME280;60035;52.122;5.406;2024-01-07T10:57:43;102773.41;;;0.97;100.00
72157;BME280;60035;52.122;5.406;2024-01-07T11:00:14;102775.03;;;0.95;100.00
72157;BME280;60035;52.122;5.406;2024-01-07T11:05:47;102766.78;;;0.99;100.00
72157;BME280;60035;52.122;5.406;2024-01-07T11:08:36;102773.00;;;1.08;100.00
72157;BME280;60035;52.122;5.406;2024-01-07T11:11:09;102779.09;;;1.13;100.00
72157;BME280;60035;52.122;5.406;2024-01-07T11:13:40;102769.31;;;1.21;100.00
72157;BME280;60035;52.122;5.406;2024-01-07T11:16:08;102780.31;;;1.23;98.61
72157;BME280;60035;52.122;5.406;2024-01-07T11:18:50;102775.41;;;1.26;98.08
72157;BME280;60035;52.122;5.406;2024-01-07T11:21:21;102782.09;;;1.25;96.85
72157;BME280;60035;52.122;5.406;2024-01-07T11:23:48;102783.09;;;1.29;96.59
72157;BME280;60035;52.122;5.406;2024-01-07T11:26:15;102776.44;;;1.31;95.86
72157;BME280;60035;52.122;5.406;2024-01-07T11:31:12;102777.47;;;1.57;96.51
72157;BME280;60035;52.122;5.406;2024-01-07T11:33:42;102767.63;;;1.63;94.71
72157;BME280;60035;52.122;5.406;2024-01-07T11:36:11;102771.19;;;1.69;93.59
72157;BME280;60035;52.122;5.406;2024-01-07T11:38:41;102780.78;;;1.77;92.04
72157;BME280;60035;52.122;5.406;2024-01-07T11:41:11;102780.59;;;1.73;90.78
72157;BME280;60035;52.122;5.406;2024-01-07T11:43:38;102775.31;;;1.66;89.96
72157;BME280;60035;52.122;5.406;2024-01-07T11:46:04;102775.84;;;1.58;89.20
72157;BME280;60035;52.122;5.406;2024-01-07T11:48:31;102781.78;;;1.39;88.56
72157;BME280;60035;52.122;5.406;2024-01-07T11:50:58;102777.38;;;1.33;89.63
72157;BME280;60035;52.122;5.406;2024-01-07T11:53:24;102776.06;;;1.22;89.12
72157;BME280;60035;52.122;5.406;2024-01-07T11:55:51;102773.31;;;1.15;90.50
72157;BME280;60035;52.122;5.406;2024-01-07T11:58:18;102780.16;;;1.18;91.48
72157;BME280;60035;52.122;5.406;2024-01-07T12:00:44;102776.16;;;1.23;92.31
72157;BME280;60035;52.122;5.406;2024-01-07T12:03:11;102766.34;;;1.31;92.78
72157;BME280;60035;52.122;5.406;2024-01-07T12:05:38;102775.09;;;1.39;92.67
72157;BME280;60035;52.122;5.406;2024-01-07T12:08:09;102767.84;;;1.47;92.52
72157;BME280;60035;52.122;5.406;2024-01-07T12:10:37;102778.16;;;1.53;91.44
72157;BME280;60035;52.122;5.406;2024-01-07T12:13:04;102766.53;;;1.57;90.69
72157;BME280;60035;52.122;5.406;2024-01-07T12:15:31;102777.72;;;1.63;90.71
72157;BME280;60035;52.122;5.406;2024-01-07T12:17:58;102775.56;;;1.73;90.79
72157;BME280;60035;52.122;5.406;2024-01-07T12:20:27;102777.69;;;1.85;90.31
72157;BME280;60035;52.122;5.406;2024-01-07T12:23:04;102779.00;;;1.75;87.47
72157;BME280;60035;52.122;5.406;2024-01-07T12:25:31;102788.88;;;1.69;86.80
72157;BME280;60035;52.122;5.406;2024-01-07T12:27:58;102774.69;;;1.72;87.89
72157;BME280;60035;52.122;5.406;2024-01-07T12:30:24;102790.72;;;1.73;86.17
72157;BME280;60035;52.122;5.406;2024-01-07T12:32:51;102783.88;;;1.70;86.67
72157;BME280;60035;52.122;5.406;2024-01-07T12:35:18;102799.09;;;1.50;84.64
72157;BME280;60035;52.122;5.406;2024-01-07T12:37:47;102807.09;;;1.40;84.69
72157;BME280;60035;52.122;5.406;2024-01-07T12:40:14;102800.94;;;1.33;84.49
72157;BME280;60035;52.122;5.406;2024-01-07T12:42:41;102798.00;;;1.44;85.41
72157;BME280;60035;52.122;5.406;2024-01-07T12:45:12;102801.03;;;1.56;84.99
72157;BME280;60035;52.122;5.406;2024-01-07T12:47:42;102806.91;;;1.57;84.48
72157;BME280;60035;52.122;5.406;2024-01-07T12:50:10;102810.38;;;1.59;84.56
72157;BME280;60035;52.122;5.406;2024-01-07T12:52:38;102806.97;;;1.58;84.31
72157;BME280;60035;52.122;5.406;2024-01-07T12:55:06;102813.19;;;1.66;84.34
72157;BME280;60035;52.122;5.406;2024-01-07T12:57:33;102814.28;;;1.73;84.59